Island Venture — WDG3765 — position and weather

sailwx.info

Track history (hours):
 
Tides and Currents Weather Stations Pressure Air Temp Water Temp Dewpoint Dewpoint Depression Visibility Wind Speed Wind Dir Waves Ship Positions

Island Venture

Owner: Island Tug and Barge, Seattle, WA. More information available from US FCC via Universal Licensing System and Coast Guard Vessel Documentation Center.

Last reported at 2017-Mar-25 11:33 UTC. Time now 2017-Mar-25 11:46 UTC.
Position N 47°34' W 122°21'.

MMSI: 367529420.

Date/timePositionNaut miles runAvg speedWind from/ knotsBaromVisibWave heightAir tempDewpointWater temp
2017-Mar-25 11:33N 47°34' W 122°21'0 0.0
2017-Mar-25 10:33N 47°34' W 122°21'0 0.0
2017-Mar-25 09:33N 47°34' W 122°21'0 0.0
2017-Mar-25 08:33N 47°34' W 122°21'0 0.0
2017-Mar-25 07:33N 47°34' W 122°21'0 0.0
2017-Mar-25 06:33N 47°34' W 122°21'0 0.0
2017-Mar-25 05:33N 47°34' W 122°21'0 0.0
2017-Mar-25 04:33N 47°34' W 122°21'0 0.0
2017-Mar-25 03:33N 47°34' W 122°21'1 0.8
2017-Mar-25 02:33N 47°34' W 122°21'0 0.4
2017-Mar-25 01:33N 47°34' W 122°21'0 0.0
2017-Mar-25 00:33N 47°34' W 122°21'3 3.2
2017-Mar-24 23:33N 47°36' W 122°25'6 6.4
2017-Mar-24 22:33N 47°30' W 122°30'6 6.5
2017-Mar-24 21:33N 47°24' W 122°32'5 5.2
2017-Mar-24 20:32N 47°18' W 122°33'4 3.6
2017-Mar-24 19:33N 47°15' W 122°34'6 5.9
2017-Mar-24 18:33N 47°10' W 122°39'2 1.8
2017-Mar-24 17:32N 47°08' W 122°39'0 0.0
2017-Mar-24 15:21N 47°08' W 122°39'0 0.0
2017-Mar-24 14:22N 47°08' W 122°39'0 0.0
2017-Mar-24 13:32N 47°08' W 122°39'1 1.2
2017-Mar-24 12:33N 47°09' W 122°39'10 3.4
2017-Mar-24 09:31N 47°19' W 122°33'6 6.3
2017-Mar-24 08:33N 47°25' W 122°32'6 6.0
2017-Mar-24 07:33N 47°30' W 122°29'6 6.1
2017-Mar-24 06:33N 47°36' W 122°25'2 2.4
2017-Mar-24 05:33N 47°34' W 122°21'2 1.6
2017-Mar-24 04:33N 47°36' W 122°22'6 5.9
2017-Mar-24 03:34N 47°32' W 122°28'7 6.6
2017-Mar-24 02:33N 47°25' W 122°32'7 6.8
2017-Mar-24 01:33N 47°19' W 122°33'7 7.1
2017-Mar-24 00:32N 47°12' W 122°36'4 0.2
2017-Mar-23 06:22N 47°16' W 122°34'7 8.8
2017-Mar-23 05:33N 47°23' W 122°32'6 6.4
2017-Mar-23 04:33N 47°29' W 122°30'3 3.0
2017-Mar-23 03:33N 47°26' W 122°31'2 2.3
2017-Mar-23 02:33N 47°24' W 122°32'1 1.2
2017-Mar-23 01:33N 47°25' W 122°32'5 4.7
2017-Mar-23 00:33N 47°20' W 122°33'7 7.0
2017-Mar-22 23:33N 47°14' W 122°35'6 0.3
2017-Mar-22 02:33N 47°20' W 122°33'7 6.8
2017-Mar-22 01:33N 47°27' W 122°32'7 7.0
2017-Mar-22 00:33N 47°33' W 122°28'4 4.3
2017-Mar-21 23:33N 47°35' W 122°22'0 0.0
2017-Mar-21 22:33N 47°35' W 122°22'1 0.9
2017-Mar-21 21:33N 47°34' W 122°21'0 0.0
2017-Mar-21 20:33N 47°34' W 122°21'0 0.0
2017-Mar-21 19:33N 47°34' W 122°21'1 1.0
2017-Mar-21 18:33N 47°35' W 122°22'0 0.4
2017-Mar-21 17:33N 47°35' W 122°22'3 3.3
2017-Mar-21 16:33N 47°34' W 122°26'6 5.8
2017-Mar-21 15:33N 47°29' W 122°30'6 5.7
2017-Mar-21 14:33N 47°23' W 122°32'5 5.5
2017-Mar-21 13:33N 47°18' W 122°33'6 6.2
2017-Mar-21 12:33N 47°12' W 122°36'6 5.8
2017-Mar-21 11:33N 47°07' W 122°41'10 0.4
2017-Mar-20 11:19N 47°16' W 122°33'5 6.1
2017-Mar-20 10:33N 47°20' W 122°33'7 7.1
2017-Mar-20 09:33N 47°27' W 122°31'7 7.4
2017-Mar-20 08:33N 47°34' W 122°26'4 3.7
2017-Mar-20 07:33N 47°34' W 122°21'0 0.0
2017-Mar-20 06:33N 47°34' W 122°21'0 0.0
2017-Mar-20 05:33N 47°34' W 122°21'0 0.4
2017-Mar-20 04:33N 47°34' W 122°21'0 0.4
2017-Mar-20 03:33N 47°34' W 122°21'0 0.0
2017-Mar-20 02:33N 47°34' W 122°21'0 0.1
2017-Mar-20 01:33N 47°34' W 122°21'1 0.6
2017-Mar-20 00:33N 47°34' W 122°21'0 0.0
2017-Mar-19 23:33N 47°34' W 122°21'0 0.0
2017-Mar-19 22:33N 47°34' W 122°21'0 0.0
2017-Mar-19 21:33N 47°34' W 122°21'0 0.0
2017-Mar-19 20:33N 47°34' W 122°21'0 0.0
2017-Mar-19 19:33N 47°34' W 122°21'0 0.0
2017-Mar-19 18:33N 47°34' W 122°21'0 0.0
2017-Mar-19 17:33N 47°34' W 122°21'0 0.0
2017-Mar-19 16:33N 47°34' W 122°21'0 0.0
2017-Mar-19 15:33N 47°34' W 122°21'0 0.0
2017-Mar-19 14:33N 47°34' W 122°21'0 0.0
2017-Mar-19 13:33N 47°34' W 122°21'0 0.0
2017-Mar-19 12:33N 47°34' W 122°21'0 0.0
2017-Mar-19 11:33N 47°34' W 122°21'0 0.0
2017-Mar-19 10:33N 47°34' W 122°21'0 0.0
2017-Mar-19 09:33N 47°34' W 122°21'0 0.0
2017-Mar-19 08:33N 47°34' W 122°21'0 0.0
2017-Mar-19 07:33N 47°34' W 122°21'0 0.0
2017-Mar-19 06:33N 47°34' W 122°21'0 0.0
2017-Mar-19 05:33N 47°34' W 122°21'0 0.0
2017-Mar-19 04:33N 47°34' W 122°21'1 0.6
2017-Mar-19 03:33N 47°34' W 122°21'1 0.8
2017-Mar-19 02:34N 47°35' W 122°22'5 5.2
2017-Mar-19 01:33N 47°39' W 122°26'3 2.6
2017-Mar-19 00:33N 47°40' W 122°23'5 5.0
2017-Mar-18 23:33N 47°40' W 122°15'6 5.7
2017-Mar-18 22:33N 47°45' W 122°15'0 0.0
2017-Mar-18 21:33N 47°45' W 122°15'3 3.2
2017-Mar-18 20:33N 47°42' W 122°15'4 4.1
2017-Mar-18 19:33N 47°39' W 122°19'4 3.6
2017-Mar-18 18:33N 47°40' W 122°24'2 2.2
2017-Mar-18 17:33N 47°38' W 122°25'5 4.9
2017-Mar-18 16:33N 47°34' W 122°21'1 1.0
2017-Mar-18 15:33N 47°35' W 122°22'  
Track history (hours):
 
Tides and Currents Weather Stations Pressure Air Temp Water Temp Dewpoint Dewpoint Depression Visibility Wind Speed Wind Dir Waves Ship Positions

Island Venture

Owner: Island Tug and Barge, Seattle, WA. More information available from US FCC via Universal Licensing System and Coast Guard Vessel Documentation Center.

Last reported at 2017-Mar-25 11:33 UTC. Time now 2017-Mar-25 11:46 UTC.
Position N 47°34' W 122°21'.

MMSI: 367529420.

Date/timePositionNaut miles runAvg speedWind from/ knotsBaromVisibWave heightAir tempDewpointWater temp
2017-Mar-25 11:33N 47°34' W 122°21'0 0.0
2017-Mar-25 10:33N 47°34' W 122°21'0 0.0
2017-Mar-25 09:33N 47°34' W 122°21'0 0.0
2017-Mar-25 08:33N 47°34' W 122°21'0 0.0
2017-Mar-25 07:33N 47°34' W 122°21'0 0.0
2017-Mar-25 06:33N 47°34' W 122°21'0 0.0
2017-Mar-25 05:33N 47°34' W 122°21'0 0.0
2017-Mar-25 04:33N 47°34' W 122°21'0 0.0
2017-Mar-25 03:33N 47°34' W 122°21'1 0.8
2017-Mar-25 02:33N 47°34' W 122°21'0 0.4
2017-Mar-25 01:33N 47°34' W 122°21'0 0.0
2017-Mar-25 00:33N 47°34' W 122°21'3 3.2
2017-Mar-24 23:33N 47°36' W 122°25'6 6.4
2017-Mar-24 22:33N 47°30' W 122°30'6 6.5
2017-Mar-24 21:33N 47°24' W 122°32'5 5.2
2017-Mar-24 20:32N 47°18' W 122°33'4 3.6
2017-Mar-24 19:33N 47°15' W 122°34'6 5.9
2017-Mar-24 18:33N 47°10' W 122°39'2 1.8
2017-Mar-24 17:32N 47°08' W 122°39'0 0.0
2017-Mar-24 15:21N 47°08' W 122°39'0 0.0
2017-Mar-24 14:22N 47°08' W 122°39'0 0.0
2017-Mar-24 13:32N 47°08' W 122°39'1 1.2
2017-Mar-24 12:33N 47°09' W 122°39'10 3.4
2017-Mar-24 09:31N 47°19' W 122°33'6 6.3
2017-Mar-24 08:33N 47°25' W 122°32'6 6.0
2017-Mar-24 07:33N 47°30' W 122°29'6 6.1
2017-Mar-24 06:33N 47°36' W 122°25'2 2.4
2017-Mar-24 05:33N 47°34' W 122°21'2 1.6
2017-Mar-24 04:33N 47°36' W 122°22'6 5.9
2017-Mar-24 03:34N 47°32' W 122°28'7 6.6
2017-Mar-24 02:33N 47°25' W 122°32'7 6.8
2017-Mar-24 01:33N 47°19' W 122°33'7 7.1
2017-Mar-24 00:32N 47°12' W 122°36'4 0.2
2017-Mar-23 06:22N 47°16' W 122°34'7 8.8
2017-Mar-23 05:33N 47°23' W 122°32'6 6.4
2017-Mar-23 04:33N 47°29' W 122°30'3 3.0
2017-Mar-23 03:33N 47°26' W 122°31'2 2.3
2017-Mar-23 02:33N 47°24' W 122°32'1 1.2
2017-Mar-23 01:33N 47°25' W 122°32'5 4.7
2017-Mar-23 00:33N 47°20' W 122°33'7 7.0
2017-Mar-22 23:33N 47°14' W 122°35'6 0.3
2017-Mar-22 02:33N 47°20' W 122°33'7 6.8
2017-Mar-22 01:33N 47°27' W 122°32'7 7.0
2017-Mar-22 00:33N 47°33' W 122°28'4 4.3
2017-Mar-21 23:33N 47°35' W 122°22'0 0.0
2017-Mar-21 22:33N 47°35' W 122°22'1 0.9
2017-Mar-21 21:33N 47°34' W 122°21'0 0.0
2017-Mar-21 20:33N 47°34' W 122°21'0 0.0
2017-Mar-21 19:33N 47°34' W 122°21'1 1.0
2017-Mar-21 18:33N 47°35' W 122°22'0 0.4
2017-Mar-21 17:33N 47°35' W 122°22'3 3.3
2017-Mar-21 16:33N 47°34' W 122°26'6 5.8
2017-Mar-21 15:33N 47°29' W 122°30'6 5.7
2017-Mar-21 14:33N 47°23' W 122°32'5 5.5
2017-Mar-21 13:33N 47°18' W 122°33'6 6.2
2017-Mar-21 12:33N 47°12' W 122°36'6 5.8
2017-Mar-21 11:33N 47°07' W 122°41'10 0.4
2017-Mar-20 11:19N 47°16' W 122°33'5 6.1
2017-Mar-20 10:33N 47°20' W 122°33'7 7.1
2017-Mar-20 09:33N 47°27' W 122°31'7 7.4
2017-Mar-20 08:33N 47°34' W 122°26'4 3.7
2017-Mar-20 07:33N 47°34' W 122°21'0 0.0
2017-Mar-20 06:33N 47°34' W 122°21'0 0.0
2017-Mar-20 05:33N 47°34' W 122°21'0 0.4
2017-Mar-20 04:33N 47°34' W 122°21'0 0.4
2017-Mar-20 03:33N 47°34' W 122°21'0 0.0
2017-Mar-20 02:33N 47°34' W 122°21'0 0.1
2017-Mar-20 01:33N 47°34' W 122°21'1 0.6
2017-Mar-20 00:33N 47°34' W 122°21'0 0.0
2017-Mar-19 23:33N 47°34' W 122°21'0 0.0
2017-Mar-19 22:33N 47°34' W 122°21'0 0.0
2017-Mar-19 21:33N 47°34' W 122°21'0 0.0
2017-Mar-19 20:33N 47°34' W 122°21'0 0.0
2017-Mar-19 19:33N 47°34' W 122°21'0 0.0
2017-Mar-19 18:33N 47°34' W 122°21'0 0.0
2017-Mar-19 17:33N 47°34' W 122°21'0 0.0
2017-Mar-19 16:33N 47°34' W 122°21'0 0.0
2017-Mar-19 15:33N 47°34' W 122°21'0 0.0
2017-Mar-19 14:33N 47°34' W 122°21'0 0.0
2017-Mar-19 13:33N 47°34' W 122°21'0 0.0
2017-Mar-19 12:33N 47°34' W 122°21'0 0.0
2017-Mar-19 11:33N 47°34' W 122°21'0 0.0
2017-Mar-19 10:33N 47°34' W 122°21'0 0.0
2017-Mar-19 09:33N 47°34' W 122°21'0 0.0
2017-Mar-19 08:33N 47°34' W 122°21'0 0.0
2017-Mar-19 07:33N 47°34' W 122°21'0 0.0
2017-Mar-19 06:33N 47°34' W 122°21'0 0.0
2017-Mar-19 05:33N 47°34' W 122°21'0 0.0
2017-Mar-19 04:33N 47°34' W 122°21'1 0.6
2017-Mar-19 03:33N 47°34' W 122°21'1 0.8
2017-Mar-19 02:34N 47°35' W 122°22'5 5.2
2017-Mar-19 01:33N 47°39' W 122°26'3 2.6
2017-Mar-19 00:33N 47°40' W 122°23'5 5.0
2017-Mar-18 23:33N 47°40' W 122°15'6 5.7
2017-Mar-18 22:33N 47°45' W 122°15'0 0.0
2017-Mar-18 21:33N 47°45' W 122°15'3 3.2
2017-Mar-18 20:33N 47°42' W 122°15'4 4.1
2017-Mar-18 19:33N 47°39' W 122°19'4 3.6
2017-Mar-18 18:33N 47°40' W 122°24'2 2.2
2017-Mar-18 17:33N 47°38' W 122°25'5 4.9
2017-Mar-18 16:33N 47°34' W 122°21'1 1.0
2017-Mar-18 15:33N 47°35' W 122°22'  

Dump ship's entire track history